sensor_id;sensor_type;location;lat;lon;timestamp;pressure;altitude;pressure_sealevel;temperature;humidity
67373;BME280;54257;54.496;18.412;2023-03-13T00:01:48;98879.55;;;-1.36;72.13
67373;BME280;54257;54.496;18.412;2023-03-13T00:04:16;98880.40;;;-1.39;72.09
67373;BME280;54257;54.496;18.412;2023-03-13T00:06:43;98877.10;;;-1.42;72.39
67373;BME280;54257;54.496;18.412;2023-03-13T00:09:12;98871.32;;;-1.45;72.29
67373;BME280;54257;54.496;18.412;2023-03-13T00:11:40;98870.08;;;-1.46;72.35
67373;BME280;54257;54.496;18.412;2023-03-13T00:14:08;98868.80;;;-1.48;72.81
67373;BME280;54257;54.496;18.412;2023-03-13T00:16:36;98869.70;;;-1.50;73.40
67373;BME280;54257;54.496;18.412;2023-03-13T00:19:06;98864.67;;;-1.50;73.79
67373;BME280;54257;54.496;18.412;2023-03-13T00:21:35;98861.50;;;-1.50;73.92
67373;BME280;54257;54.496;18.412;2023-03-13T00:24:09;98859.73;;;-1.49;74.29
67373;BME280;54257;54.496;18.412;2023-03-13T00:26:36;98861.39;;;-1.46;74.72
67373;BME280;54257;54.496;18.412;2023-03-13T00:29:04;98869.48;;;-1.40;75.32
67373;BME280;54257;54.496;18.412;2023-03-13T00:31:32;98873.30;;;-1.34;75.62
67373;BME280;54257;54.496;18.412;2023-03-13T00:34:01;98876.28;;;-1.27;75.56
67373;BME280;54257;54.496;18.412;2023-03-13T00:36:31;98877.77;;;-1.20;76.11
67373;BME280;54257;54.496;18.412;2023-03-13T00:38:59;98868.71;;;-1.13;76.39
67373;BME280;54257;54.496;18.412;2023-03-13T00:41:28;98857.98;;;-1.05;76.44
67373;BME280;54257;54.496;18.412;2023-03-13T00:43:55;98853.23;;;-0.99;76.56
67373;BME280;54257;54.496;18.412;2023-03-13T00:46:27;98846.95;;;-0.94;76.47
67373;BME280;54257;54.496;18.412;2023-03-13T00:48:55;98840.48;;;-0.89;76.48
67373;BME280;54257;54.496;18.412;2023-03-13T00:51:23;98833.29;;;-0.84;76.15
67373;BME280;54257;54.496;18.412;2023-03-13T00:53:53;98830.91;;;-0.81;76.10
67373;BME280;54257;54.496;18.412;2023-03-13T00:56:20;98821.25;;;-0.80;76.04
67373;BME280;54257;54.496;18.412;2023-03-13T00:58:49;98814.60;;;-0.78;75.86
67373;BME280;54257;54.496;18.412;2023-03-13T01:01:21;98802.19;;;-0.78;76.04
67373;BME280;54257;54.496;18.412;2023-03-13T01:03:56;98799.31;;;-0.79;76.47
67373;BME280;54257;54.496;18.412;2023-03-13T01:06:27;98788.40;;;-0.79;76.29
67373;BME280;54257;54.496;18.412;2023-03-13T01:08:54;98789.87;;;-0.80;76.16
67373;BME280;54257;54.496;18.412;2023-03-13T01:11:24;98789.48;;;-0.81;76.39
67373;BME280;54257;54.496;18.412;2023-03-13T01:13:56;98781.08;;;-0.82;76.19
67373;BME280;54257;54.496;18.412;2023-03-13T01:16:24;98774.15;;;-0.83;76.37
67373;BME280;54257;54.496;18.412;2023-03-13T01:18:55;98769.51;;;-0.86;76.62
67373;BME280;54257;54.496;18.412;2023-03-13T01:21:25;98767.46;;;-0.87;76.67
67373;BME280;54257;54.496;18.412;2023-03-13T01:23:54;98776.02;;;-0.87;76.41
67373;BME280;54257;54.496;18.412;2023-03-13T01:26:22;98771.23;;;-0.85;76.57
67373;BME280;54257;54.496;18.412;2023-03-13T01:28:50;98766.30;;;-0.82;77.00
67373;BME280;54257;54.496;18.412;2023-03-13T01:33:53;98746.39;;;-0.74;77.26
67373;BME280;54257;54.496;18.412;2023-03-13T01:36:20;98737.52;;;-0.70;77.36
67373;BME280;54257;54.496;18.412;2023-03-13T01:38:52;98730.68;;;-0.65;77.41
67373;BME280;54257;54.496;18.412;2023-03-13T01:41:21;98731.05;;;-0.59;77.39
67373;BME280;54257;54.496;18.412;2023-03-13T01:43:49;98731.61;;;-0.54;77.08
67373;BME280;54257;54.496;18.412;2023-03-13T01:46:24;98730.17;;;-0.48;77.18
67373;BME280;54257;54.496;18.412;2023-03-13T01:49:09;98732.84;;;-0.44;77.07
67373;BME280;54257;54.496;18.412;2023-03-13T01:51:42;98733.91;;;-0.42;77.27
67373;BME280;54257;54.496;18.412;2023-03-13T01:54:18;98726.59;;;-0.41;77.08
67373;BME280;54257;54.496;18.412;2023-03-13T01:57:01;98722.79;;;-0.40;76.95
67373;BME280;54257;54.496;18.412;2023-03-13T01:59:53;98719.40;;;-0.41;77.48
67373;BME280;54257;54.496;18.412;2023-03-13T02:02:23;98713.74;;;-0.43;77.78
67373;BME280;54257;54.496;18.412;2023-03-13T02:05:00;98708.83;;;-0.45;78.11
67373;BME280;54257;54.496;18.412;2023-03-13T02:07:50;98704.30;;;-0.45;78.15
67373;BME280;54257;54.496;18.412;2023-03-13T02:10:20;98710.65;;;-0.46;78.54
67373;BME280;54257;54.496;18.412;2023-03-13T02:12:52;98719.91;;;-0.45;78.74
67373;BME280;54257;54.496;18.412;2023-03-13T02:15:21;98724.65;;;-0.43;78.67
67373;BME280;54257;54.496;18.412;2023-03-13T02:17:50;98722.19;;;-0.42;78.93
67373;BME280;54257;54.496;18.412;2023-03-13T02:20:19;98722.62;;;-0.40;79.11
67373;BME280;54257;54.496;18.412;2023-03-13T02:23:13;98718.15;;;-0.38;79.56
67373;BME280;54257;54.496;18.412;2023-03-13T02:25:45;98713.76;;;-0.35;79.38
67373;BME280;54257;54.496;18.412;2023-03-13T02:28:19;98708.69;;;-0.32;79.41
67373;BME280;54257;54.496;18.412;2023-03-13T02:30:51;98710.40;;;-0.31;79.54
67373;BME280;54257;54.496;18.412;2023-03-13T02:33:21;98711.66;;;-0.29;79.36
67373;BME280;54257;54.496;18.412;2023-03-13T02:35:52;98713.52;;;-0.24;79.30
67373;BME280;54257;54.496;18.412;2023-03-13T02:38:23;98708.05;;;-0.22;79.26
67373;BME280;54257;54.496;18.412;2023-03-13T02:40:52;98712.40;;;-0.17;79.12
67373;BME280;54257;54.496;18.412;2023-03-13T02:46:13;98690.14;;;-0.12;79.94
67373;BME280;54257;54.496;18.412;2023-03-13T02:48:43;98685.52;;;-0.10;80.17
67373;BME280;54257;54.496;18.412;2023-03-13T02:51:19;98680.30;;;-0.06;80.25
67373;BME280;54257;54.496;18.412;2023-03-13T02:53:49;98682.00;;;-0.06;80.38
67373;BME280;54257;54.496;18.412;2023-03-13T02:56:26;98670.12;;;-0.04;80.39
67373;BME280;54257;54.496;18.412;2023-03-13T02:58:55;98669.95;;;-0.05;81.05
67373;BME280;54257;54.496;18.412;2023-03-13T03:01:22;98666.41;;;-0.05;81.22
67373;BME280;54257;54.496;18.412;2023-03-13T03:03:49;98661.23;;;-0.05;81.34
67373;BME280;54257;54.496;18.412;2023-03-13T03:06:16;98655.00;;;-0.05;81.27
67373;BME280;54257;54.496;18.412;2023-03-13T03:08:44;98649.73;;;-0.07;81.85
67373;BME280;54257;54.496;18.412;2023-03-13T03:11:11;98643.15;;;-0.08;81.90
67373;BME280;54257;54.496;18.412;2023-03-13T03:13:38;98641.65;;;-0.08;81.68
67373;BME280;54257;54.496;18.412;2023-03-13T03:16:10;98640.29;;;-0.08;82.32
67373;BME280;54257;54.496;18.412;2023-03-13T03:18:37;98638.14;;;-0.08;82.27
67373;BME280;54257;54.496;18.412;2023-03-13T03:21:05;98628.95;;;-0.06;82.23
67373;BME280;54257;54.496;18.412;2023-03-13T03:23:33;98628.97;;;-0.06;82.59
67373;BME280;54257;54.496;18.412;2023-03-13T03:26:01;98619.95;;;-0.05;82.96
67373;BME280;54257;54.496;18.412;2023-03-13T03:28:28;98613.64;;;-0.02;83.29
67373;BME280;54257;54.496;18.412;2023-03-13T03:30:56;98610.71;;;0.00;83.25
67373;BME280;54257;54.496;18.412;2023-03-13T03:33:23;98605.89;;;0.01;83.09
67373;BME280;54257;54.496;18.412;2023-03-13T03:35:50;98600.95;;;0.04;83.05
67373;BME280;54257;54.496;18.412;2023-03-13T03:38:17;98598.80;;;0.05;83.59
67373;BME280;54257;54.496;18.412;2023-03-13T03:40:44;98600.77;;;0.08;83.75
67373;BME280;54257;54.496;18.412;2023-03-13T03:43:11;98610.64;;;0.12;84.61
67373;BME280;54257;54.496;18.412;2023-03-13T03:45:38;98605.23;;;0.16;85.96
67373;BME280;54257;54.496;18.412;2023-03-13T03:48:05;98597.00;;;0.20;86.68
67373;BME280;54257;54.496;18.412;2023-03-13T03:50:32;98598.52;;;0.25;86.82
67373;BME280;54257;54.496;18.412;2023-03-13T03:52:58;98588.06;;;0.29;87.13
67373;BME280;54257;54.496;18.412;2023-03-13T03:55:25;98579.14;;;0.33;87.62
67373;BME280;54257;54.496;18.412;2023-03-13T03:57:55;98575.21;;;0.36;88.16
67373;BME280;54257;54.496;18.412;2023-03-13T04:00:22;98576.61;;;0.38;88.72
67373;BME280;54257;54.496;18.412;2023-03-13T04:02:49;98575.63;;;0.39;88.98
67373;BME280;54257;54.496;18.412;2023-03-13T04:05:16;98572.42;;;0.38;89.48
67373;BME280;54257;54.496;18.412;2023-03-13T04:07:43;98570.50;;;0.36;90.07
67373;BME280;54257;54.496;18.412;2023-03-13T04:10:10;98570.33;;;0.36;89.98
67373;BME280;54257;54.496;18.412;2023-03-13T04:12:40;98566.74;;;0.34;90.52
67373;BME280;54257;54.496;18.412;2023-03-13T04:15:08;98557.23;;;0.31;91.05
67373;BME280;54257;54.496;18.412;2023-03-13T04:17:37;98549.81;;;0.30;90.61
67373;BME280;54257;54.496;18.412;2023-03-13T04:20:05;98543.41;;;0.29;90.66
67373;BME280;54257;54.496;18.412;2023-03-13T04:22:33;98547.33;;;0.31;90.77
67373;BME280;54257;54.496;18.412;2023-03-13T04:25:03;98538.35;;;0.33;91.63
67373;BME280;54257;54.496;18.412;2023-03-13T04:27:32;98534.88;;;0.35;91.89
67373;BME280;54257;54.496;18.412;2023-03-13T04:29:59;98528.07;;;0.37;92.44
67373;BME280;54257;54.496;18.412;2023-03-13T04:32:26;98529.67;;;0.40;92.81
67373;BME280;54257;54.496;18.412;2023-03-13T04:34:53;98524.21;;;0.42;93.28
67373;BME280;54257;54.496;18.412;2023-03-13T04:37:20;98524.08;;;0.43;93.33
67373;BME280;54257;54.496;18.412;2023-03-13T04:39:51;98522.73;;;0.43;93.51
67373;BME280;54257;54.496;18.412;2023-03-13T04:42:18;98522.61;;;0.45;93.47
67373;BME280;54257;54.496;18.412;2023-03-13T04:44:45;98523.46;;;0.45;93.38
67373;BME280;54257;54.496;18.412;2023-03-13T04:47:12;98518.77;;;0.46;94.14
67373;BME280;54257;54.496;18.412;2023-03-13T04:49:39;98515.29;;;0.47;94.13
67373;BME280;54257;54.496;18.412;2023-03-13T04:52:06;98507.95;;;0.48;94.20
67373;BME280;54257;54.496;18.412;2023-03-13T04:54:34;98502.00;;;0.51;94.21
67373;BME280;54257;54.496;18.412;2023-03-13T04:57:09;98495.18;;;0.54;94.24
67373;BME280;54257;54.496;18.412;2023-03-13T04:59:36;98494.58;;;0.56;94.12
67373;BME280;54257;54.496;18.412;2023-03-13T05:02:03;98493.48;;;0.58;93.49
67373;BME280;54257;54.496;18.412;2023-03-13T05:04:30;98487.25;;;0.57;94.33
67373;BME280;54257;54.496;18.412;2023-03-13T05:06:59;98480.56;;;0.58;94.13
67373;BME280;54257;54.496;18.412;2023-03-13T05:09:26;98482.75;;;0.58;94.17
67373;BME280;54257;54.496;18.412;2023-03-13T05:11:53;98478.85;;;0.57;94.62
67373;BME280;54257;54.496;18.412;2023-03-13T05:14:20;98475.29;;;0.56;94.95
67373;BME280;54257;54.496;18.412;2023-03-13T05:16:47;98473.08;;;0.56;95.21
67373;BME280;54257;54.496;18.412;2023-03-13T05:19:14;98469.29;;;0.58;95.13
67373;BME280;54257;54.496;18.412;2023-03-13T05:21:41;98466.11;;;0.58;96.25
67373;BME280;54257;54.496;18.412;2023-03-13T05:24:08;98459.34;;;0.62;96.23
67373;BME280;54257;54.496;18.412;2023-03-13T05:26:35;98460.95;;;0.65;96.96
67373;BME280;54257;54.496;18.412;2023-03-13T05:29:02;98461.59;;;0.70;96.72
67373;BME280;54257;54.496;18.412;2023-03-13T05:31:28;98455.35;;;0.74;96.65
67373;BME280;54257;54.496;18.412;2023-03-13T05:33:55;98449.27;;;0.79;96.91
67373;BME280;54257;54.496;18.412;2023-03-13T05:36:22;98446.84;;;0.81;97.55
67373;BME280;54257;54.496;18.412;2023-03-13T05:38:49;98447.28;;;0.85;97.28
67373;BME280;54257;54.496;18.412;2023-03-13T05:41:16;98444.15;;;0.88;97.13
67373;BME280;54257;54.496;18.412;2023-03-13T05:43:43;98443.05;;;0.90;97.47
67373;BME280;54257;54.496;18.412;2023-03-13T05:46:11;98439.52;;;0.90;97.49
67373;BME280;54257;54.496;18.412;2023-03-13T05:48:37;98438.48;;;0.89;97.68
67373;BME280;54257;54.496;18.412;2023-03-13T05:51:04;98433.92;;;0.89;97.46
67373;BME280;54257;54.496;18.412;2023-03-13T05:53:31;98426.98;;;0.86;98.33
67373;BME280;54257;54.496;18.412;2023-03-13T05:55:58;98426.92;;;0.84;98.81
67373;BME280;54257;54.496;18.412;2023-03-13T05:58:25;98423.22;;;0.84;98.92
67373;BME280;54257;54.496;18.412;2023-03-13T06:00:52;98419.38;;;0.85;99.48
67373;BME280;54257;54.496;18.412;2023-03-13T06:03:22;98422.29;;;0.87;99.33
67373;BME280;54257;54.496;18.412;2023-03-13T06:05:49;98414.16;;;0.91;99.58
67373;BME280;54257;54.496;18.412;2023-03-13T06:08:16;98408.56;;;0.95;99.91
67373;BME280;54257;54.496;18.412;2023-03-13T06:10:42;98408.21;;;0.99;100.00
67373;BME280;54257;54.496;18.412;2023-03-13T06:13:09;98408.14;;;1.03;100.00
67373;BME280;54257;54.496;18.412;2023-03-13T06:15:36;98405.77;;;1.08;100.00
67373;BME280;54257;54.496;18.412;2023-03-13T06:18:03;98402.34;;;1.12;100.00
67373;BME280;54257;54.496;18.412;2023-03-13T06:20:30;98397.06;;;1.15;100.00
67373;BME280;54257;54.496;18.412;2023-03-13T06:22:57;98390.42;;;1.18;100.00
67373;BME280;54257;54.496;18.412;2023-03-13T06:25:24;98386.77;;;1.20;100.00
67373;BME280;54257;54.496;18.412;2023-03-13T06:27:53;98380.05;;;1.21;100.00
67373;BME280;54257;54.496;18.412;2023-03-13T06:30:20;98382.81;;;1.22;100.00
67373;BME280;54257;54.496;18.412;2023-03-13T06:32:47;98381.69;;;1.24;99.99
67373;BME280;54257;54.496;18.412;2023-03-13T06:35:15;98377.16;;;1.25;100.00
67373;BME280;54257;54.496;18.412;2023-03-13T06:37:42;98372.34;;;1.27;100.00
67373;BME280;54257;54.496;18.412;2023-03-13T06:40:10;98367.83;;;1.29;100.00
67373;BME280;54257;54.496;18.412;2023-03-13T06:42:37;98369.82;;;1.33;100.00
67373;BME280;54257;54.496;18.412;2023-03-13T06:45:04;98365.27;;;1.39;100.00
67373;BME280;54257;54.496;18.412;2023-03-13T06:47:31;98363.21;;;1.45;100.00
67373;BME280;54257;54.496;18.412;2023-03-13T06:49:58;98354.93;;;1.49;100.00
67373;BME280;54257;54.496;18.412;2023-03-13T06:52:25;98355.05;;;1.54;100.00
67373;BME280;54257;54.496;18.412;2023-03-13T06:54:52;98350.80;;;1.58;100.00
67373;BME280;54257;54.496;18.412;2023-03-13T06:57:19;98349.08;;;1.64;100.00
67373;BME280;54257;54.496;18.412;2023-03-13T06:59:47;98351.91;;;1.69;100.00
67373;BME280;54257;54.496;18.412;2023-03-13T07:02:14;98351.89;;;1.75;100.00
67373;BME280;54257;54.496;18.412;2023-03-13T07:04:41;98349.33;;;1.80;100.00
67373;BME280;54257;54.496;18.412;2023-03-13T07:07:09;98347.30;;;1.87;100.00
67373;BME280;54257;54.496;18.412;2023-03-13T07:09:39;98346.31;;;1.94;100.00
67373;BME280;54257;54.496;18.412;2023-03-13T07:12:08;98349.35;;;2.02;100.00
67373;BME280;54257;54.496;18.412;2023-03-13T07:14:37;98349.86;;;2.09;100.00
67373;BME280;54257;54.496;18.412;2023-03-13T07:17:04;98343.13;;;2.16;100.00
67373;BME280;54257;54.496;18.412;2023-03-13T07:19:31;98337.35;;;2.21;100.00
67373;BME280;54257;54.496;18.412;2023-03-13T07:22:00;98332.05;;;2.25;100.00
67373;BME280;54257;54.496;18.412;2023-03-13T07:24:27;98325.93;;;2.30;100.00
67373;BME280;54257;54.496;18.412;2023-03-13T07:26:56;98323.03;;;2.36;100.00
67373;BME280;54257;54.496;18.412;2023-03-13T07:29:37;98318.92;;;2.41;100.00
67373;BME280;54257;54.496;18.412;2023-03-13T07:32:24;98312.31;;;2.46;100.00
67373;BME280;54257;54.496;18.412;2023-03-13T07:34:53;98310.05;;;2.51;99.95
67373;BME280;54257;54.496;18.412;2023-03-13T07:37:21;98298.19;;;2.56;99.92
67373;BME280;54257;54.496;18.412;2023-03-13T07:39:54;98291.73;;;2.62;99.63
67373;BME280;54257;54.496;18.412;2023-03-13T07:42:22;98285.45;;;2.68;99.65
67373;BME280;54257;54.496;18.412;2023-03-13T07:44:55;98280.83;;;2.72;99.40
67373;BME280;54257;54.496;18.412;2023-03-13T07:47:22;98279.02;;;2.76;99.38
67373;BME280;54257;54.496;18.412;2023-03-13T07:49:50;98276.77;;;2.80;99.36
67373;BME280;54257;54.496;18.412;2023-03-13T07:52:19;98277.05;;;2.85;99.32
67373;BME280;54257;54.496;18.412;2023-03-13T07:54:48;98271.41;;;2.91;99.18
67373;BME280;54257;54.496;18.412;2023-03-13T07:57:23;98266.64;;;2.97;99.07
67373;BME280;54257;54.496;18.412;2023-03-13T07:59:53;98264.04;;;3.01;98.97
67373;BME280;54257;54.496;18.412;2023-03-13T08:02:23;98260.91;;;3.06;98.84
67373;BME280;54257;54.496;18.412;2023-03-13T08:04:51;98256.45;;;3.11;98.69
67373;BME280;54257;54.496;18.412;2023-03-13T08:07:19;98250.77;;;3.15;98.77
67373;BME280;54257;54.496;18.412;2023-03-13T08:09:46;98253.89;;;3.18;98.47
67373;BME280;54257;54.496;18.412;2023-03-13T08:12:13;98254.94;;;3.20;98.41
67373;BME280;54257;54.496;18.412;2023-03-13T08:14:41;98253.64;;;3.23;98.18
67373;BME280;54257;54.496;18.412;2023-03-13T08:17:08;98251.19;;;3.27;98.11
67373;BME280;54257;54.496;18.412;2023-03-13T08:19:35;98242.76;;;3.28;98.13
67373;BME280;54257;54.496;18.412;2023-03-13T08:22:01;98241.30;;;3.32;98.16
67373;BME280;54257;54.496;18.412;2023-03-13T08:24:29;98240.62;;;3.31;98.21
67373;BME280;54257;54.496;18.412;2023-03-13T08:26:56;98232.33;;;3.30;98.44
67373;BME280;54257;54.496;18.412;2023-03-13T08:29:23;98226.94;;;3.31;98.49
67373;BME280;54257;54.496;18.412;2023-03-13T08:31:50;98224.61;;;3.33;99.04
67373;BME280;54257;54.496;18.412;2023-03-13T08:34:18;98218.24;;;3.34;98.79
67373;BME280;54257;54.496;18.412;2023-03-13T08:36:46;98207.26;;;3.34;99.17
67373;BME280;54257;54.496;18.412;2023-03-13T08:39:15;98209.66;;;3.36;99.45
67373;BME280;54257;54.496;18.412;2023-03-13T08:41:43;98208.85;;;3.39;99.57
67373;BME280;54257;54.496;18.412;2023-03-13T08:44:11;98200.16;;;3.44;99.50
67373;BME280;54257;54.496;18.412;2023-03-13T08:46:39;98201.56;;;3.47;99.58
67373;BME280;54257;54.496;18.412;2023-03-13T08:49:08;98196.55;;;3.50;99.35
67373;BME280;54257;54.496;18.412;2023-03-13T08:51:36;98195.42;;;3.53;99.49
67373;BME280;54257;54.496;18.412;2023-03-13T08:54:03;98188.85;;;3.54;99.59
67373;BME280;54257;54.496;18.412;2023-03-13T08:56:32;98190.37;;;3.54;99.50
67373;BME280;54257;54.496;18.412;2023-03-13T08:59:02;98187.01;;;3.56;99.49
67373;BME280;54257;54.496;18.412;2023-03-13T09:01:32;98186.02;;;3.57;99.61
67373;BME280;54257;54.496;18.412;2023-03-13T09:03:59;98183.01;;;3.58;99.72
67373;BME280;54257;54.496;18.412;2023-03-13T09:06:27;98173.87;;;3.57;99.97
67373;BME280;54257;54.496;18.412;2023-03-13T09:08:56;98166.77;;;3.57;100.00
67373;BME280;54257;54.496;18.412;2023-03-13T09:11:24;98163.46;;;3.61;100.00
67373;BME280;54257;54.496;18.412;2023-03-13T09:13:53;98157.78;;;3.65;100.00
67373;BME280;54257;54.496;18.412;2023-03-13T09:16:22;98154.64;;;3.70;99.98
67373;BME280;54257;54.496;18.412;2023-03-13T09:18:51;98150.45;;;3.73;99.91
67373;BME280;54257;54.496;18.412;2023-03-13T09:21:30;98148.08;;;3.72;99.86
67373;BME280;54257;54.496;18.412;2023-03-13T09:23:58;98143.04;;;3.73;99.90
67373;BME280;54257;54.496;18.412;2023-03-13T09:26:27;98143.34;;;3.71;99.90
67373;BME280;54257;54.496;18.412;2023-03-13T09:28:54;98139.96;;;3.70;99.96
67373;BME280;54257;54.496;18.412;2023-03-13T09:31:42;98137.43;;;3.70;99.98
67373;BME280;54257;54.496;18.412;2023-03-13T09:34:24;98136.92;;;3.70;100.00
67373;BME280;54257;54.496;18.412;2023-03-13T09:36:52;98132.36;;;3.69;100.00
67373;BME280;54257;54.496;18.412;2023-03-13T09:39:19;98128.81;;;3.70;100.00
67373;BME280;54257;54.496;18.412;2023-03-13T09:42:16;98124.27;;;3.70;100.00
67373;BME280;54257;54.496;18.412;2023-03-13T09:45:02;98120.58;;;3.73;100.00
67373;BME280;54257;54.496;18.412;2023-03-13T09:47:47;98115.02;;;3.74;100.00
67373;BME280;54257;54.496;18.412;2023-03-13T09:50:26;98105.98;;;3.79;100.00
67373;BME280;54257;54.496;18.412;2023-03-13T09:53:02;98100.77;;;3.81;100.00
67373;BME280;54257;54.496;18.412;2023-03-13T09:55:32;98098.77;;;3.82;100.00
67373;BME280;54257;54.496;18.412;2023-03-13T09:58:10;98092.65;;;3.81;100.00
67373;BME280;54257;54.496;18.412;2023-03-13T10:00:42;98091.31;;;3.81;100.00
67373;BME280;54257;54.496;18.412;2023-03-13T10:05:38;98079.20;;;3.84;100.00
67373;BME280;54257;54.496;18.412;2023-03-13T10:08:15;98074.33;;;3.86;100.00
67373;BME280;54257;54.496;18.412;2023-03-13T10:10:44;98073.33;;;3.88;100.00
67373;BME280;54257;54.496;18.412;2023-03-13T10:13:30;98068.61;;;3.88;100.00
67373;BME280;54257;54.496;18.412;2023-03-13T10:16:14;98067.28;;;3.90;100.00
67373;BME280;54257;54.496;18.412;2023-03-13T10:18:47;98058.88;;;3.92;100.00
67373;BME280;54257;54.496;18.412;2023-03-13T10:21:20;98056.54;;;3.95;100.00
67373;BME280;54257;54.496;18.412;2023-03-13T10:23:52;98055.04;;;3.98;100.00
67373;BME280;54257;54.496;18.412;2023-03-13T10:26:25;98051.54;;;4.00;100.00
67373;BME280;54257;54.496;18.412;2023-03-13T10:28:55;98046.48;;;4.03;100.00
67373;BME280;54257;54.496;18.412;2023-03-13T10:31:31;98044.81;;;4.04;100.00
67373;BME280;54257;54.496;18.412;2023-03-13T10:34:06;98040.59;;;4.05;100.00
67373;BME280;54257;54.496;18.412;2023-03-13T10:36:43;98035.71;;;4.06;100.00
67373;BME280;54257;54.496;18.412;2023-03-13T10:39:20;98025.77;;;4.07;100.00
67373;BME280;54257;54.496;18.412;2023-03-13T10:41:49;98020.55;;;4.08;100.00
67373;BME280;54257;54.496;18.412;2023-03-13T10:44:23;98015.13;;;4.07;100.00
67373;BME280;54257;54.496;18.412;2023-03-13T10:46:59;98009.23;;;4.08;100.00
67373;BME280;54257;54.496;18.412;2023-03-13T10:49:29;98002.32;;;4.10;100.00
67373;BME280;54257;54.496;18.412;2023-03-13T10:52:02;97991.35;;;4.12;100.00
67373;BME280;54257;54.496;18.412;2023-03-13T10:54:32;97984.77;;;4.14;100.00
67373;BME280;54257;54.496;18.412;2023-03-13T10:59:46;97970.11;;;4.16;100.00
67373;BME280;54257;54.496;18.412;2023-03-13T11:04:54;97957.80;;;4.19;100.00
67373;BME280;54257;54.496;18.412;2023-03-13T11:12:48;97933.72;;;4.30;100.00
67373;BME280;54257;54.496;18.412;2023-03-13T11:15:46;97924.45;;;4.30;100.00
67373;BME280;54257;54.496;18.412;2023-03-13T11:18:31;97927.36;;;4.36;100.00
67373;BME280;54257;54.496;18.412;2023-03-13T11:21:12;97918.27;;;4.39;100.00
67373;BME280;54257;54.496;18.412;2023-03-13T11:23:58;97911.87;;;4.42;100.00
67373;BME280;54257;54.496;18.412;2023-03-13T11:26:55;97897.35;;;4.45;100.00
67373;BME280;54257;54.496;18.412;2023-03-13T11:29:41;97884.51;;;4.47;100.00
67373;BME280;54257;54.496;18.412;2023-03-13T11:35:00;97865.95;;;4.49;100.00
67373;BME280;54257;54.496;18.412;2023-03-13T11:37:32;97866.63;;;4.50;100.00
67373;BME280;54257;54.496;18.412;2023-03-13T11:40:19;97863.75;;;4.51;100.00
67373;BME280;54257;54.496;18.412;2023-03-13T11:51:15;97841.06;;;4.47;100.00
67373;BME280;54257;54.496;18.412;2023-03-13T12:02:27;97820.14;;;4.49;100.00
67373;BME280;54257;54.496;18.412;2023-03-13T12:05:03;97814.91;;;4.53;100.00
67373;BME280;54257;54.496;18.412;2023-03-13T12:08:15;97801.73;;;4.55;100.00
67373;BME280;54257;54.496;18.412;2023-03-13T12:10:47;97789.76;;;4.56;100.00
67373;BME280;54257;54.496;18.412;2023-03-13T12:13:28;97775.23;;;4.60;100.00
67373;BME280;54257;54.496;18.412;2023-03-13T12:16:02;97762.72;;;4.63;100.00
67373;BME280;54257;54.496;18.412;2023-03-13T12:18:37;97754.96;;;4.64;100.00
67373;BME280;54257;54.496;18.412;2023-03-13T12:26:34;97745.34;;;4.69;100.00
67373;BME280;54257;54.496;18.412;2023-03-13T12:35:17;97731.98;;;4.71;100.00
67373;BME280;54257;54.496;18.412;2023-03-13T12:37:53;97725.41;;;4.74;100.00
67373;BME280;54257;54.496;18.412;2023-03-13T12:46:10;97709.70;;;4.83;100.00
67373;BME280;54257;54.496;18.412;2023-03-13T12:52:11;97705.14;;;4.86;100.00
67373;BME280;54257;54.496;18.412;2023-03-13T12:55:06;97693.31;;;4.87;100.00
67373;BME280;54257;54.496;18.412;2023-03-13T12:58:36;97688.59;;;4.91;100.00
67373;BME280;54257;54.496;18.412;2023-03-13T13:00:38;97684.36;;;4.94;100.00
67373;BME280;54257;54.496;18.412;2023-03-13T13:08:48;97673.56;;;5.08;100.00
67373;BME280;54257;54.496;18.412;2023-03-13T13:16:50;97652.77;;;5.14;100.00
67373;BME280;54257;54.496;18.412;2023-03-13T13:24:57;97646.33;;;5.21;100.00
67373;BME280;54257;54.496;18.412;2023-03-13T13:35:18;97630.23;;;5.26;100.00
67373;BME280;54257;54.496;18.412;2023-03-13T13:37:46;97623.81;;;5.31;100.00
67373;BME280;54257;54.496;18.412;2023-03-13T13:42:53;97615.86;;;5.38;100.00
67373;BME280;54257;54.496;18.412;2023-03-13T13:45:24;97612.45;;;5.42;100.00
67373;BME280;54257;54.496;18.412;2023-03-13T13:53:45;97595.86;;;5.49;100.00
67373;BME280;54257;54.496;18.412;2023-03-13T14:01:47;97593.29;;;5.59;100.00
67373;BME280;54257;54.496;18.412;2023-03-13T14:04:22;97590.41;;;5.64;100.00
67373;BME280;54257;54.496;18.412;2023-03-13T14:06:56;97583.63;;;5.67;100.00
67373;BME280;54257;54.496;18.412;2023-03-13T14:12:29;97593.77;;;5.73;100.00
67373;BME280;54257;54.496;18.412;2023-03-13T14:15:17;97586.14;;;5.75;100.00
67373;BME280;54257;54.496;18.412;2023-03-13T14:17:48;97579.19;;;5.78;100.00
67373;BME280;54257;54.496;18.412;2023-03-13T14:20:33;97581.04;;;5.82;100.00
67373;BME280;54257;54.496;18.412;2023-03-13T14:23:08;97580.52;;;5.86;100.00
67373;BME280;54257;54.496;18.412;2023-03-13T14:25:54;97562.73;;;5.89;100.00
67373;BME280;54257;54.496;18.412;2023-03-13T14:28:26;97556.98;;;5.92;100.00
67373;BME280;54257;54.496;18.412;2023-03-13T14:30:56;97567.64;;;5.94;100.00
67373;BME280;54257;54.496;18.412;2023-03-13T14:33:24;97570.87;;;5.96;100.00
67373;BME280;54257;54.496;18.412;2023-03-13T14:35:53;97565.59;;;5.98;100.00
67373;BME280;54257;54.496;18.412;2023-03-13T14:38:26;97561.69;;;6.00;100.00
67373;BME280;54257;54.496;18.412;2023-03-13T14:40:53;97558.96;;;6.01;100.00
67373;BME280;54257;54.496;18.412;2023-03-13T14:43:40;97557.11;;;6.03;100.00
67373;BME280;54257;54.496;18.412;2023-03-13T14:46:26;97546.23;;;6.07;100.00
67373;BME280;54257;54.496;18.412;2023-03-13T14:48:55;97545.55;;;6.08;100.00
67373;BME280;54257;54.496;18.412;2023-03-13T14:51:26;97544.36;;;6.10;100.00
67373;BME280;54257;54.496;18.412;2023-03-13T14:54:00;97543.99;;;6.15;100.00